Time;durP1;ratioP1;P1;durP2;ratioP2;P2;SDS_P1;SDS_P2;PMS_P1;PMS_P2;Temp;Humidity;BMP_temperature;BMP_pressure;BME280_temperature;BME280_humidity;BME280_pressure;Samples;Min_cycle;Max_cycle;Signal;HPM_P1;HPM_P2
2022/07/21 00:00:25;;;;;;;7.43;4.10;;;17.80;99.90;;;;;;4442025;28;659071;-62
2022/07/21 00:03:13;;;;;;;15.40;4.33;;;17.60;99.90;;;;;;4424004;28;657124;-61
2022/07/21 00:06:00;;;;;;;10.63;4.63;;;17.70;99.90;;;;;;4422402;28;658575;-62
2022/07/21 00:08:47;;;;;;;10.03;4.57;;;17.50;99.90;;;;;;4443879;28;657650;-62
2022/07/21 00:11:35;;;;;;;9.87;4.40;;;17.50;99.90;;;;;;4441502;28;656489;-63
2022/07/21 00:14:22;;;;;;;9.80;4.30;;;17.60;99.90;;;;;;4443448;28;655868;-61
2022/07/21 00:17:09;;;;;;;8.00;4.57;;;17.50;99.90;;;;;;4431383;28;655960;-61
2022/07/21 00:19:58;;;;;;;6.83;3.93;;;17.50;99.90;;;;;;4412889;28;656531;-62
2022/07/21 00:22:45;;;;;;;10.13;4.17;;;17.50;99.90;;;;;;4414695;28;655852;-63
2022/07/21 00:25:32;;;;;;;8.00;3.87;;;17.50;99.90;;;;;;4429261;28;657183;-61
2022/07/21 00:28:19;;;;;;;8.30;4.30;;;17.60;99.90;;;;;;4431863;28;655459;-61
2022/07/21 00:31:07;;;;;;;7.10;4.20;;;17.60;99.90;;;;;;4425455;28;656086;-62
2022/07/21 00:33:54;;;;;;;8.13;4.30;;;17.70;99.90;;;;;;4440775;28;655848;-63
2022/07/21 00:36:42;;;;;;;6.27;3.87;;;17.80;99.90;;;;;;4420377;28;655608;-62
2022/07/21 00:39:29;;;;;;;8.43;3.63;;;17.90;99.90;;;;;;4436886;28;655985;-62
2022/07/21 00:42:21;;;;;;;8.07;3.37;;;18.00;99.90;;;;;;4424568;28;656295;-62
2022/07/21 00:45:09;;;;;;;8.37;3.70;;;18.00;99.90;;;;;;4404464;28;656527;-62
2022/07/21 00:47:56;;;;;;;7.97;3.50;;;18.10;99.90;;;;;;4424030;28;655980;-62
2022/07/21 00:50:43;;;;;;;8.37;4.17;;;18.10;99.90;;;;;;4439593;28;657335;-62
2022/07/21 00:53:32;;;;;;;10.13;3.63;;;18.00;99.90;;;;;;4405242;28;655665;-62
2022/07/21 00:56:20;;;;;;;7.53;3.70;;;17.90;99.90;;;;;;4440497;28;657219;-62
2022/07/21 00:59:07;;;;;;;5.70;3.53;;;17.80;99.90;;;;;;4424677;28;656067;-62
2022/07/21 01:01:55;;;;;;;10.83;4.50;;;17.70;99.90;;;;;;4442679;28;655458;-62
2022/07/21 01:04:42;;;;;;;7.97;4.03;;;17.70;99.90;;;;;;4446360;28;657090;-62
2022/07/21 01:07:29;;;;;;;7.17;3.53;;;17.60;99.90;;;;;;4434771;28;656397;-62
2022/07/21 01:10:18;;;;;;;7.80;3.90;;;17.60;99.90;;;;;;4407292;28;655747;-61
2022/07/21 01:13:06;;;;;;;6.60;3.50;;;17.50;99.90;;;;;;4421207;28;655720;-62
2022/07/21 01:15:53;;;;;;;6.00;4.20;;;17.40;99.90;;;;;;4446690;28;656125;-62
2022/07/21 01:18:40;;;;;;;9.90;4.47;;;17.40;99.90;;;;;;4407183;28;656036;-63
2022/07/21 01:21:31;;;;;;;7.30;3.60;;;17.30;99.90;;;;;;4430718;28;656227;-62
2022/07/21 01:24:18;;;;;;;9.70;3.90;;;17.30;99.90;;;;;;4420878;28;656002;-61
2022/07/21 01:27:05;;;;;;;6.10;3.80;;;17.30;99.90;;;;;;4433451;28;655651;-63
2022/07/21 01:29:52;;;;;;;6.18;3.63;;;17.30;99.90;;;;;;4446937;28;655503;-61
2022/07/21 01:32:40;;;;;;;7.93;3.73;;;17.20;99.90;;;;;;4443672;28;656296;-62
2022/07/21 01:35:27;;;;;;;5.87;3.83;;;17.20;99.90;;;;;;4422509;28;656222;-62
2022/07/21 01:41:32;;;;;;;7.43;4.28;;;17.10;99.90;;;;;;4399658;28;656414;-62
2022/07/21 01:44:19;;;;;;;7.93;5.10;;;17.10;99.90;;;;;;4403622;28;656179;-62
2022/07/21 01:47:06;;;;;;;10.57;4.40;;;17.00;99.90;;;;;;4420979;28;655252;-61
2022/07/21 01:49:54;;;;;;;8.87;4.40;;;16.90;99.90;;;;;;4440973;28;656622;-62
2022/07/21 01:52:41;;;;;;;8.20;4.70;;;16.90;99.90;;;;;;4408532;28;655695;-62
2022/07/21 01:55:30;;;;;;;9.43;4.50;;;16.80;99.90;;;;;;4431409;28;655652;-61
2022/07/21 01:58:17;;;;;;;9.70;4.80;;;16.70;99.90;;;;;;4425605;28;656782;-61
2022/07/21 02:01:04;;;;;;;12.80;5.13;;;16.70;99.90;;;;;;4444225;28;656126;-62
2022/07/21 02:03:51;;;;;;;11.13;5.43;;;16.70;99.90;;;;;;4420324;28;656932;-62
2022/07/21 02:06:38;;;;;;;10.40;5.37;;;16.70;99.90;;;;;;4442143;28;657904;-62
2022/07/21 02:09:25;;;;;;;9.27;4.63;;;16.60;99.90;;;;;;4424263;28;656371;-63
2022/07/21 02:12:14;;;;;;;13.20;5.10;;;16.60;99.90;;;;;;4442269;28;656663;-62
2022/07/21 02:15:01;;;;;;;9.77;5.10;;;16.50;99.90;;;;;;4422073;28;657600;-61
2022/07/21 02:17:48;;;;;;;9.80;5.00;;;16.40;99.90;;;;;;4442429;28;656758;-63
2022/07/21 02:20:35;;;;;;;13.40;4.83;;;16.50;99.90;;;;;;4418357;28;655506;-62
2022/07/21 02:23:22;;;;;;;12.57;4.87;;;16.50;99.90;;;;;;4449926;28;657786;-62
2022/07/21 02:26:10;;;;;;;7.73;4.30;;;16.60;99.90;;;;;;4426675;28;656037;-63
2022/07/21 02:28:59;;;;;;;9.77;5.20;;;16.60;99.90;;;;;;4446021;28;656772;-62
2022/07/21 02:31:46;;;;;;;7.90;4.50;;;16.50;99.90;;;;;;4427249;28;655426;-64
2022/07/21 02:34:33;;;;;;;9.53;4.63;;;16.50;99.90;;;;;;4442911;28;656660;-64
2022/07/21 02:37:20;;;;;;;9.07;4.80;;;16.60;99.90;;;;;;4428207;28;655812;-65
2022/07/21 02:40:08;;;;;;;10.40;4.43;;;16.50;99.90;;;;;;4443838;28;656546;-64
2022/07/21 02:42:55;;;;;;;7.77;4.77;;;16.50;99.90;;;;;;4421442;28;656899;-64
2022/07/21 02:45:44;;;;;;;8.87;4.70;;;16.50;99.90;;;;;;4442473;28;657013;-64
2022/07/21 02:48:31;;;;;;;10.50;5.00;;;16.50;99.90;;;;;;4420876;28;655295;-64
2022/07/21 02:51:18;;;;;;;11.67;5.27;;;16.50;99.90;;;;;;4442901;28;658440;-64
2022/07/21 02:54:05;;;;;;;11.47;5.20;;;16.40;99.90;;;;;;4425155;28;657096;-65
2022/07/21 02:56:52;;;;;;;8.33;4.60;;;16.40;99.90;;;;;;4445619;28;657844;-64
2022/07/21 02:59:39;;;;;;;9.20;5.30;;;16.50;99.90;;;;;;4445142;28;655350;-64
2022/07/21 03:02:28;;;;;;;10.60;4.80;;;16.50;99.90;;;;;;4423408;28;655600;-64
2022/07/21 03:05:15;;;;;;;8.80;4.90;;;16.60;99.90;;;;;;4407232;28;656429;-66
2022/07/21 03:08:02;;;;;;;8.00;4.50;;;16.70;99.90;;;;;;4441137;28;656361;-64
2022/07/21 03:10:49;;;;;;;10.97;4.30;;;16.70;99.90;;;;;;4442254;28;656191;-64
2022/07/21 03:13:37;;;;;;;8.73;4.77;;;16.80;99.90;;;;;;4416483;28;657358;-64
2022/07/21 03:16:24;;;;;;;7.40;4.63;;;16.70;99.90;;;;;;4443654;28;656411;-64
2022/07/21 03:19:12;;;;;;;7.50;4.87;;;16.80;99.90;;;;;;4401241;28;656285;-64
2022/07/21 03:21:59;;;;;;;9.37;4.90;;;16.80;99.90;;;;;;4423697;28;656036;-64
2022/07/21 03:24:46;;;;;;;10.90;5.30;;;16.80;99.90;;;;;;4413101;28;655470;-64
2022/07/21 03:27:36;;;;;;;10.40;4.87;;;16.80;99.90;;;;;;4440420;28;657068;-64
2022/07/21 03:30:23;;;;;;;11.23;4.83;;;16.80;99.90;;;;;;4418068;28;657930;-65
2022/07/21 03:33:10;;;;;;;10.53;4.63;;;16.80;99.90;;;;;;4405923;28;659096;-65
2022/07/21 03:35:59;;;;;;;12.20;4.78;;;16.90;99.90;;;;;;4447636;28;656836;-65
2022/07/21 03:38:46;;;;;;;12.13;5.13;;;17.00;99.90;;;;;;4424921;28;657323;-64
2022/07/21 03:41:33;;;;;;;8.83;5.27;;;17.00;99.90;;;;;;4440367;28;658104;-64
2022/07/21 03:44:20;;;;;;;8.20;4.83;;;17.10;99.90;;;;;;4427172;28;655766;-65
2022/07/21 03:47:08;;;;;;;10.27;4.67;;;17.10;99.90;;;;;;4427308;28;657102;-64
2022/07/21 03:49:55;;;;;;;8.60;4.67;;;17.10;99.90;;;;;;4437160;28;656558;-66
2022/07/21 03:52:44;;;;;;;9.77;5.00;;;17.10;99.90;;;;;;4447793;28;655049;-64
2022/07/21 03:55:31;;;;;;;7.73;4.87;;;17.20;99.90;;;;;;4418565;28;655839;-66
2022/07/21 03:58:18;;;;;;;7.37;4.97;;;17.30;99.90;;;;;;4448412;28;655334;-64
2022/07/21 04:01:05;;;;;;;12.53;5.50;;;17.30;99.90;;;;;;4418342;28;657160;-65
2022/07/21 04:03:52;;;;;;;6.37;4.33;;;17.50;99.90;;;;;;4436261;28;656053;-64
2022/07/21 04:06:39;;;;;;;10.60;5.03;;;17.60;99.90;;;;;;4433060;28;655501;-64
2022/07/21 04:09:28;;;;;;;9.63;4.60;;;17.60;99.90;;;;;;4407248;28;656629;-64
2022/07/21 04:12:15;;;;;;;10.67;5.23;;;17.80;99.90;;;;;;4421811;28;656822;-65
2022/07/21 04:15:02;;;;;;;11.85;5.38;;;17.80;99.90;;;;;;4447663;28;656923;-65
2022/07/21 04:17:50;;;;;;;8.70;4.90;;;17.90;99.90;;;;;;4427382;28;657072;-65
2022/07/21 04:20:37;;;;;;;10.33;5.13;;;18.00;99.90;;;;;;4415943;28;657238;-64
2022/07/21 04:23:24;;;;;;;10.00;5.33;;;18.20;99.90;;;;;;4437461;28;658929;-64
2022/07/21 04:26:12;;;;;;;13.47;4.80;;;18.40;99.90;;;;;;4416200;28;657969;-64
2022/07/21 04:29:00;;;;;;;8.73;5.23;;;18.70;99.90;;;;;;4442740;28;656047;-65
2022/07/21 04:31:47;;;;;;;9.17;5.27;;;18.90;99.90;;;;;;4433590;28;655081;-64
2022/07/21 04:34:34;;;;;;;9.77;5.10;;;19.00;99.90;;;;;;4441558;28;655871;-64
2022/07/21 04:37:21;;;;;;;12.60;4.87;;;19.20;99.90;;;;;;4428070;28;655394;-64
2022/07/21 04:40:10;;;;;;;8.87;4.67;;;19.40;99.90;;;;;;4439815;28;657472;-64
2022/07/21 04:42:58;;;;;;;10.97;5.00;;;19.60;99.90;;;;;;4421548;28;657056;-64
2022/07/21 04:45:45;;;;;;;7.27;4.93;;;19.80;99.90;;;;;;4424189;28;656209;-65
2022/07/21 04:48:32;;;;;;;8.73;4.90;;;19.90;99.90;;;;;;4437432;28;656440;-64
2022/07/21 04:51:19;;;;;;;7.40;5.00;;;20.10;99.90;;;;;;4447740;28;655205;-65
2022/07/21 04:54:06;;;;;;;8.53;5.20;;;20.20;99.90;;;;;;4426987;28;655553;-65
2022/07/21 04:56:55;;;;;;;12.63;5.43;;;20.30;99.90;;;;;;4436284;28;655949;-65
2022/07/21 04:59:43;;;;;;;10.23;5.20;;;20.50;99.90;;;;;;4402874;28;658292;-64
2022/07/21 05:02:30;;;;;;;8.13;5.47;;;20.60;99.90;;;;;;4417615;28;656941;-65
2022/07/21 05:05:17;;;;;;;9.63;5.30;;;20.70;99.90;;;;;;4446133;28;656113;-64
2022/07/21 05:08:05;;;;;;;10.03;5.30;;;20.80;99.90;;;;;;4438516;28;656102;-66
2022/07/21 05:10:52;;;;;;;9.23;5.17;;;20.90;99.90;;;;;;4434987;28;657985;-64
2022/07/21 05:13:40;;;;;;;10.67;5.47;;;21.10;99.90;;;;;;4443291;28;655177;-66
2022/07/21 05:16:29;;;;;;;11.40;5.37;;;21.10;99.90;;;;;;4448008;28;657648;-64
2022/07/21 05:19:16;;;;;;;12.27;5.67;;;21.20;99.90;;;;;;4409417;28;656504;-64
2022/07/21 05:22:03;;;;;;;11.20;6.17;;;21.30;99.90;;;;;;4430236;28;657758;-65
2022/07/21 05:24:50;;;;;;;13.73;5.80;;;21.40;99.90;;;;;;4429364;28;656646;-66
2022/07/21 05:27:37;;;;;;;13.10;5.80;;;21.50;99.90;;;;;;4444428;28;656243;-64
2022/07/21 05:30:24;;;;;;;9.07;5.87;;;21.60;99.90;;;;;;4442908;28;657041;-65
2022/07/21 05:33:13;;;;;;;12.63;6.23;;;21.70;99.90;;;;;;4418930;28;656372;-65
2022/07/21 05:36:00;;;;;;;12.73;6.13;;;21.80;99.90;;;;;;4430996;28;656958;-66
2022/07/21 05:38:47;;;;;;;15.10;6.93;;;21.90;99.90;;;;;;4448133;28;657631;-63
2022/07/21 05:41:34;;;;;;;17.23;7.93;;;22.10;99.90;;;;;;4439432;28;656984;-62
2022/07/21 05:44:21;;;;;;;20.27;7.30;;;22.30;99.90;;;;;;4423604;28;656870;-63
2022/07/21 05:47:09;;;;;;;17.03;8.90;;;22.40;99.90;;;;;;4441476;28;657071;-63
2022/07/21 05:49:57;;;;;;;18.60;8.20;;;22.50;99.90;;;;;;4421959;28;656959;-63
2022/07/21 05:52:44;;;;;;;17.63;7.10;;;22.60;99.90;;;;;;4425271;28;656681;-62
2022/07/21 05:55:31;;;;;;;16.23;7.47;;;22.70;99.90;;;;;;4402425;28;656551;-63
2022/07/21 05:58:22;;;;;;;15.10;6.23;;;22.80;99.90;;;;;;4444061;28;657093;-63
2022/07/21 06:01:12;;;;;;;15.63;6.60;;;22.90;99.90;;;;;;4420671;28;656530;-63
2022/07/21 06:03:59;;;;;;;12.97;6.03;;;22.90;99.90;;;;;;4421025;28;657077;-62
2022/07/21 06:06:47;;;;;;;15.80;6.30;;;23.20;99.90;;;;;;4423882;28;656461;-62
2022/07/21 06:09:34;;;;;;;14.37;6.27;;;23.30;99.90;;;;;;4439873;28;656865;-63
2022/07/21 06:12:21;;;;;;;16.60;5.97;;;23.50;99.90;;;;;;4424776;28;656671;-63
2022/07/21 06:15:10;;;;;;;12.60;6.20;;;23.60;99.90;;;;;;4440996;28;656722;-64
2022/07/21 06:17:57;;;;;;;10.93;6.07;;;23.80;99.90;;;;;;4421734;28;658365;-63
2022/07/21 06:20:44;;;;;;;15.73;6.83;;;23.80;99.90;;;;;;4441371;28;657004;-63
2022/07/21 06:23:32;;;;;;;12.30;5.73;;;23.90;99.90;;;;;;4419354;28;657921;-63
2022/07/21 06:26:20;;;;;;;12.57;5.97;;;24.00;99.90;;;;;;4441762;28;656415;-64
2022/07/21 06:29:07;;;;;;;9.83;5.13;;;24.10;99.90;;;;;;4428704;28;658308;-63
2022/07/21 06:31:54;;;;;;;14.90;5.70;;;24.30;99.90;;;;;;4427376;28;655455;-63
2022/07/21 06:34:41;;;;;;;13.93;6.07;;;24.40;99.10;;;;;;4421119;28;656213;-63
2022/07/21 06:37:28;;;;;;;10.70;5.73;;;24.50;97.80;;;;;;4442490;28;657728;-63
2022/07/21 06:40:17;;;;;;;10.87;5.57;;;24.60;98.70;;;;;;4423211;28;657274;-63
2022/07/21 06:43:04;;;;;;;16.03;6.17;;;24.80;99.90;;;;;;4446757;28;657280;-62
2022/07/21 06:45:51;;;;;;;9.47;5.70;;;24.90;98.90;;;;;;4422568;28;656833;-63
2022/07/21 06:48:38;;;;;;;18.43;6.30;;;25.10;98.50;;;;;;4426172;28;656883;-63
2022/07/21 06:51:25;;;;;;;13.57;6.23;;;25.20;95.70;;;;;;4406943;28;657081;-62
2022/07/21 06:54:12;;;;;;;18.77;6.60;;;25.30;94.20;;;;;;4441210;28;658210;-63
2022/07/21 06:57:01;;;;;;;11.85;6.13;;;25.50;94.90;;;;;;4438758;28;656537;-64
2022/07/21 06:59:49;;;;;;;11.52;6.25;;;25.70;93.90;;;;;;4436319;28;656350;-63
2022/07/21 07:02:36;;;;;;;12.52;6.07;;;25.80;93.00;;;;;;4418290;28;656384;-63
2022/07/21 07:05:23;;;;;;;17.42;6.43;;;25.80;93.80;;;;;;4442386;28;657800;-63
2022/07/21 07:08:10;;;;;;;11.95;6.00;;;26.00;93.70;;;;;;4422053;28;656674;-64
2022/07/21 07:10:57;;;;;;;12.82;5.95;;;26.10;93.60;;;;;;4443375;28;656559;-62
2022/07/21 07:13:46;;;;;;;11.77;5.85;;;26.10;90.40;;;;;;4443474;28;656549;-63
2022/07/21 07:16:33;;;;;;;8.40;5.50;;;26.40;91.90;;;;;;4427741;28;657719;-62
2022/07/21 07:19:21;;;;;;;11.52;5.68;;;26.60;90.90;;;;;;4413284;28;655310;-63
2022/07/21 07:22:08;;;;;;;8.95;5.60;;;26.70;91.30;;;;;;4446026;28;658012;-63
2022/07/21 07:24:55;;;;;;;11.45;5.93;;;26.80;90.20;;;;;;4429032;28;655399;-64
2022/07/21 07:27:42;;;;;;;11.00;5.95;;;26.80;88.80;;;;;;4427498;28;656302;-63
2022/07/21 07:30:31;;;;;;;16.60;5.63;;;26.70;89.80;;;;;;4439877;28;656640;-63
2022/07/21 07:33:18;;;;;;;9.82;5.97;;;26.90;87.90;;;;;;4421369;28;658207;-63
2022/07/21 07:36:06;;;;;;;11.30;5.88;;;26.80;90.10;;;;;;4429675;28;655783;-64
2022/07/21 07:38:54;;;;;;;11.38;5.82;;;27.20;89.10;;;;;;4439090;28;657678;-65
2022/07/21 07:41:41;;;;;;;8.70;5.65;;;27.10;87.40;;;;;;4421314;28;656714;-63
2022/07/21 07:44:28;;;;;;;8.18;5.40;;;27.40;84.10;;;;;;4431293;28;655990;-62
2022/07/21 07:47:16;;;;;;;16.75;5.93;;;27.40;83.50;;;;;;4412495;28;655680;-64
2022/07/21 07:50:04;;;;;;;13.68;5.65;;;27.70;83.10;;;;;;4415580;28;657715;-64
2022/07/21 07:52:51;;;;;;;11.98;5.43;;;28.10;80.20;;;;;;4419488;28;656727;-64
2022/07/21 07:55:38;;;;;;;11.80;5.47;;;28.30;81.00;;;;;;4442958;28;657077;-63
2022/07/21 07:58:25;;;;;;;16.60;5.60;;;28.20;79.50;;;;;;4406342;28;656913;-63
2022/07/21 08:01:13;;;;;;;10.73;5.40;;;28.40;79.60;;;;;;4441077;28;657175;-63
2022/07/21 08:04:02;;;;;;;8.75;5.13;;;28.50;79.70;;;;;;4401191;28;656567;-65
2022/07/21 08:06:49;;;;;;;8.52;4.80;;;28.70;77.30;;;;;;4446826;28;655289;-63
2022/07/21 08:09:36;;;;;;;10.00;4.40;;;29.00;76.70;;;;;;4416514;28;655254;-63
2022/07/21 08:12:23;;;;;;;12.15;4.70;;;29.00;71.60;;;;;;4442473;28;658082;-63
2022/07/21 08:15:11;;;;;;;10.05;5.13;;;29.00;68.90;;;;;;4410323;28;656805;-65
2022/07/21 08:17:58;;;;;;;8.70;4.25;;;29.10;73.10;;;;;;4446268;28;657622;-64
2022/07/21 08:20:47;;;;;;;6.70;4.53;;;29.40;70.90;;;;;;4413462;28;655877;-64
2022/07/21 08:23:34;;;;;;;9.88;5.03;;;29.60;70.40;;;;;;4437843;28;656921;-63
2022/07/21 08:26:21;;;;;;;10.18;5.20;;;29.40;70.70;;;;;;4427830;28;655432;-64
2022/07/21 08:29:08;;;;;;;14.93;4.93;;;29.70;70.40;;;;;;4440528;28;658413;-64
2022/07/21 08:31:55;;;;;;;9.20;4.97;;;30.00;68.20;;;;;;4423335;28;658028;-64
2022/07/21 08:34:42;;;;;;;8.40;4.57;;;30.20;70.30;;;;;;4439844;28;657888;-63
2022/07/21 08:37:31;;;;;;;8.65;4.93;;;30.20;64.30;;;;;;4419472;28;656443;-65
2022/07/21 08:40:19;;;;;;;9.77;4.63;;;30.30;65.80;;;;;;4421772;28;656308;-63
2022/07/21 08:43:06;;;;;;;11.82;4.72;;;30.10;64.10;;;;;;4424148;28;656408;-65
2022/07/21 08:45:53;;;;;;;19.08;5.10;;;30.40;67.40;;;;;;4441223;28;658711;-65
2022/07/21 08:48:40;;;;;;;11.38;5.03;;;30.60;66.10;;;;;;4418334;28;658096;-65
2022/07/21 08:51:27;;;;;;;8.77;4.63;;;31.00;63.20;;;;;;4429787;28;657267;-64
2022/07/21 08:54:16;;;;;;;7.60;4.55;;;30.90;64.80;;;;;;4440945;28;656481;-64
2022/07/21 08:57:03;;;;;;;16.85;5.18;;;31.20;64.50;;;;;;4418141;28;656819;-64
2022/07/21 08:59:50;;;;;;;12.60;4.30;;;31.40;59.80;;;;;;4420720;28;657750;-66
2022/07/21 09:02:38;;;;;;;11.30;4.85;;;31.40;59.00;;;;;;4442651;28;659063;-65
2022/07/21 09:05:25;;;;;;;14.30;5.35;;;31.60;60.90;;;;;;4419017;28;658341;-65
2022/07/21 09:08:12;;;;;;;13.32;4.93;;;31.70;61.20;;;;;;4426300;28;658452;-64
2022/07/21 09:11:20;;;;;;;9.15;4.85;;;32.00;61.00;;;;;;4430417;28;658284;-64
2022/07/21 09:14:09;;;;;;;6.68;4.60;;;31.80;60.00;;;;;;4417030;28;658113;-64
2022/07/21 09:16:57;;;;;;;12.93;4.72;;;31.60;61.80;;;;;;4405094;28;656738;-65
2022/07/21 09:19:46;;;;;;;10.40;4.43;;;31.90;59.50;;;;;;4409178;28;657738;-65
2022/07/21 09:22:33;;;;;;;11.45;4.57;;;31.80;56.00;;;;;;4397004;28;657803;-64
2022/07/21 09:25:34;;;;;;;8.27;4.75;;;32.00;58.70;;;;;;4403847;28;657598;-64
2022/07/21 09:28:23;;;;;;;6.97;3.83;;;32.20;56.90;;;;;;4403226;28;656638;-64
2022/07/21 09:31:11;;;;;;;8.57;4.50;;;32.30;54.20;;;;;;4411845;28;656139;-64
2022/07/21 09:33:58;;;;;;;9.20;4.50;;;32.60;54.70;;;;;;4439313;28;656091;-65
2022/07/21 09:36:55;;;;;;;8.55;4.20;;;32.80;54.00;;;;;;4410359;28;656505;-64
2022/07/21 09:39:43;;;;;;;10.57;4.28;;;32.90;55.70;;;;;;4428666;28;656558;-64
2022/07/21 09:42:31;;;;;;;10.73;4.23;;;32.50;55.40;;;;;;4419735;28;657925;-64
2022/07/21 09:45:20;;;;;;;12.88;3.95;;;32.90;53.60;;;;;;4432323;28;658331;-64
2022/07/21 09:48:07;;;;;;;14.27;4.22;;;32.80;51.50;;;;;;4419881;28;658428;-64
2022/07/21 09:50:54;;;;;;;9.82;3.95;;;32.70;53.10;;;;;;4442727;28;657385;-64
2022/07/21 09:53:49;;;;;;;9.57;4.28;;;32.80;53.60;;;;;;4420506;28;657911;-64
2022/07/21 09:56:37;;;;;;;8.95;4.35;;;32.80;53.60;;;;;;4399517;28;657649;-64
2022/07/21 09:59:24;;;;;;;10.45;4.15;;;32.80;52.30;;;;;;4438716;28;657152;-66
2022/07/21 10:02:16;;;;;;;11.60;4.00;;;32.60;49.00;;;;;;4411416;28;657911;-65
2022/07/21 10:05:04;;;;;;;6.00;4.25;;;32.80;53.40;;;;;;4399921;28;658120;-64
2022/07/21 10:07:51;;;;;;;7.03;3.90;;;32.30;48.50;;;;;;4423832;28;656690;-64
2022/07/21 10:10:38;;;;;;;9.57;4.20;;;32.40;51.10;;;;;;4442572;28;657185;-65
2022/07/21 10:13:26;;;;;;;10.05;4.00;;;32.80;54.40;;;;;;4420506;28;656292;-65
2022/07/21 10:16:13;;;;;;;8.82;4.18;;;33.00;51.80;;;;;;4435116;28;658214;-64
2022/07/21 10:19:03;;;;;;;7.10;3.33;;;33.40;48.30;;;;;;4411737;28;656728;-66
2022/07/21 10:21:54;;;;;;;7.05;3.17;;;33.20;46.20;;;;;;4419559;28;657084;-65
2022/07/21 10:24:41;;;;;;;7.68;3.13;;;33.40;43.60;;;;;;4419838;28;656548;-65
2022/07/21 10:27:28;;;;;;;13.77;3.45;;;33.90;45.10;;;;;;4443721;28;656637;-64
2022/07/21 10:30:15;;;;;;;7.03;3.25;;;34.20;45.80;;;;;;4420926;28;659361;-65
2022/07/21 10:33:02;;;;;;;5.55;3.38;;;34.50;49.20;;;;;;4444897;28;657235;-64
2022/07/21 10:35:52;;;;;;;6.97;3.70;;;34.10;46.90;;;;;;4440197;28;656527;-65
2022/07/21 10:38:39;;;;;;;8.57;4.03;;;33.60;47.70;;;;;;4416626;28;656415;-65
2022/07/21 10:41:37;;;;;;;14.52;4.30;;;34.00;49.40;;;;;;4418837;28;657341;-65
2022/07/21 10:44:42;;;;;;;11.00;4.20;;;34.10;51.00;;;;;;4401090;28;658466;-66
2022/07/21 10:47:30;;;;;;;19.33;4.10;;;34.10;50.20;;;;;;4414792;28;658090;-64
2022/07/21 10:50:29;;;;;;;9.32;3.72;;;34.40;48.50;;;;;;4417020;28;658584;-64
2022/07/21 10:53:18;;;;;;;10.50;4.05;;;34.40;48.40;;;;;;4427033;28;656703;-64
2022/07/21 10:56:06;;;;;;;16.73;4.40;;;34.60;48.30;;;;;;4422006;28;657180;-65
2022/07/21 10:58:53;;;;;;;7.30;3.72;;;34.50;48.10;;;;;;4424582;28;658120;-66
2022/07/21 11:01:40;;;;;;;10.73;3.85;;;34.30;46.80;;;;;;4408811;28;656496;-65
2022/07/21 11:04:27;;;;;;;8.50;4.18;;;34.30;49.90;;;;;;4438040;28;658676;-65
2022/07/21 11:07:14;;;;;;;11.13;4.18;;;34.30;49.20;;;;;;4417876;28;656583;-64
2022/07/21 11:10:17;;;;;;;10.20;3.90;;;33.90;48.20;;;;;;4404344;28;657531;-64
2022/07/21 11:13:04;;;;;;;10.83;4.10;;;34.40;48.90;;;;;;4393374;28;657870;-64
2022/07/21 11:15:56;;;;;;;7.68;4.28;;;34.60;49.10;;;;;;4422749;28;657388;-65
2022/07/21 11:18:43;;;;;;;10.37;4.03;;;34.40;47.80;;;;;;4413034;28;658040;-64
2022/07/21 11:21:30;;;;;;;12.95;4.57;;;34.30;48.00;;;;;;4420487;28;657809;-64
2022/07/21 11:24:19;;;;;;;6.55;3.83;;;34.60;46.80;;;;;;4422968;28;659249;-64
2022/07/21 11:27:08;;;;;;;9.50;3.47;;;34.60;47.80;;;;;;4403908;28;656560;-65
2022/07/21 11:29:57;;;;;;;7.70;3.78;;;34.80;45.40;;;;;;4404761;28;656648;-65
2022/07/21 11:32:46;;;;;;;5.32;3.45;;;34.90;46.50;;;;;;4441207;28;656263;-65
2022/07/21 11:35:38;;;;;;;7.55;3.67;;;35.00;46.80;;;;;;4420837;28;657590;-64
2022/07/21 11:38:25;;;;;;;7.30;3.58;;;35.10;46.60;;;;;;4402413;28;656521;-65
2022/07/21 11:41:19;;;;;;;9.48;3.55;;;35.40;46.50;;;;;;4448155;28;656848;-64
2022/07/21 11:44:08;;;;;;;13.20;3.45;;;35.10;43.80;;;;;;4423140;28;656453;-64
2022/07/21 11:46:56;;;;;;;9.02;3.33;;;35.10;44.00;;;;;;4422870;28;657443;-66
2022/07/21 11:49:44;;;;;;;9.98;3.72;;;35.10;43.70;;;;;;4424291;28;656835;-64
2022/07/21 11:52:32;;;;;;;11.05;3.55;;;35.00;43.40;;;;;;4425532;28;656455;-65
2022/07/21 11:55:19;;;;;;;15.40;3.63;;;35.10;46.60;;;;;;4420704;28;658098;-64
2022/07/21 11:58:13;;;;;;;8.23;3.08;;;35.30;46.40;;;;;;4407257;28;657455;-64
2022/07/21 12:01:08;;;;;;;7.00;3.30;;;35.30;44.40;;;;;;4384712;28;656837;-64
2022/07/21 12:03:55;;;;;;;8.15;3.13;;;35.20;42.90;;;;;;4381640;28;657377;-65
2022/07/21 12:06:42;;;;;;;5.95;3.47;;;35.50;42.30;;;;;;4428592;28;657637;-64
2022/07/21 12:09:29;;;;;;;7.88;3.42;;;35.50;41.70;;;;;;4433984;28;656405;-64
2022/07/21 12:12:27;;;;;;;6.03;3.50;;;35.50;42.90;;;;;;4416631;28;657462;-64
2022/07/21 12:15:15;;;;;;;7.67;3.30;;;35.90;42.50;;;;;;4421443;28;656954;-64
2022/07/21 12:18:05;;;;;;;8.02;3.28;;;35.60;42.90;;;;;;4421442;28;657703;-64
2022/07/21 12:21:01;;;;;;;6.72;3.17;;;35.90;41.30;;;;;;4414117;28;656698;-65
2022/07/21 12:23:49;;;;;;;8.70;3.20;;;36.00;41.30;;;;;;4402108;28;656835;-64
2022/07/21 12:26:36;;;;;;;9.25;3.55;;;36.10;39.30;;;;;;4424784;28;656251;-64
2022/07/21 12:29:26;;;;;;;4.93;3.05;;;35.80;41.70;;;;;;4444350;28;657234;-65
2022/07/21 12:32:14;;;;;;;10.33;2.87;;;35.60;41.50;;;;;;4420400;28;657506;-66
2022/07/21 12:35:02;;;;;;;6.85;3.30;;;36.00;41.30;;;;;;4421917;28;657527;-65
2022/07/21 12:38:01;;;;;;;8.48;3.20;;;35.70;42.10;;;;;;4439414;28;656925;-65
2022/07/21 12:40:56;;;;;;;7.33;3.00;;;35.90;38.40;;;;;;4416114;28;657259;-65
2022/07/21 12:43:43;;;;;;;7.13;3.10;;;35.90;40.30;;;;;;4398662;28;657018;-64
2022/07/21 12:46:33;;;;;;;8.52;2.90;;;36.20;39.90;;;;;;4423526;28;657253;-64
2022/07/21 12:49:20;;;;;;;8.85;3.00;;;36.00;39.30;;;;;;4428383;28;657374;-65
2022/07/21 12:52:09;;;;;;;7.10;2.70;;;36.00;37.20;;;;;;4443200;28;657279;-64
2022/07/21 12:54:56;;;;;;;8.45;2.80;;;35.90;39.60;;;;;;4422583;28;658658;-65
2022/07/21 12:57:43;;;;;;;4.13;2.63;;;35.90;38.90;;;;;;4447112;28;657727;-64
2022/07/21 13:00:30;;;;;;;4.53;2.70;;;35.90;38.60;;;;;;4428414;28;656470;-65
2022/07/21 13:03:17;;;;;;;6.30;2.50;;;35.90;41.10;;;;;;4444138;28;657465;-64
2022/07/21 13:06:05;;;;;;;13.40;2.78;;;35.90;38.40;;;;;;4443017;28;656712;-65
2022/07/21 13:08:54;;;;;;;5.57;2.70;;;35.70;39.40;;;;;;4412085;28;658791;-64
2022/07/21 13:11:41;;;;;;;8.18;2.78;;;35.60;39.80;;;;;;4414783;28;656841;-64
2022/07/21 13:14:28;;;;;;;8.95;2.80;;;35.70;39.10;;;;;;4422538;28;657364;-64
2022/07/21 13:17:15;;;;;;;10.67;2.50;;;35.50;39.40;;;;;;4424610;28;657971;-65
2022/07/21 13:20:02;;;;;;;7.53;3.20;;;35.50;39.70;;;;;;4442587;28;657567;-64
2022/07/21 13:22:50;;;;;;;10.90;3.15;;;35.60;38.50;;;;;;4434958;28;656730;-65
2022/07/21 13:25:39;;;;;;;8.38;2.70;;;35.80;37.70;;;;;;4442567;28;657739;-64
2022/07/21 13:28:26;;;;;;;12.32;3.42;;;35.70;38.00;;;;;;4407608;28;656570;-64
2022/07/21 13:31:13;;;;;;;10.00;3.30;;;35.40;38.00;;;;;;4429409;28;658007;-64
2022/07/21 13:34:00;;;;;;;8.30;2.65;;;36.00;37.20;;;;;;4405865;28;658165;-65
2022/07/21 13:36:47;;;;;;;9.17;2.83;;;36.30;36.60;;;;;;4444255;28;656617;-64
2022/07/21 13:39:34;;;;;;;7.68;3.10;;;36.20;39.30;;;;;;4443176;28;656776;-65
2022/07/21 13:42:23;;;;;;;9.20;3.00;;;36.10;40.50;;;;;;4422309;28;656582;-64
2022/07/21 13:45:11;;;;;;;7.35;2.95;;;35.80;39.30;;;;;;4428669;28;656530;-65
2022/07/21 13:47:58;;;;;;;7.28;3.17;;;36.00;39.30;;;;;;4437630;28;658540;-64
2022/07/21 13:50:45;;;;;;;10.32;3.00;;;36.10;39.60;;;;;;4411546;28;656492;-65
2022/07/21 13:53:32;;;;;;;14.27;2.92;;;36.00;39.40;;;;;;4439818;28;658136;-64
2022/07/21 13:56:20;;;;;;;7.65;3.03;;;35.70;38.00;;;;;;4438748;28;657995;-66
2022/07/21 13:59:09;;;;;;;8.13;3.22;;;36.00;39.00;;;;;;4437012;28;657359;-64
2022/07/21 14:01:56;;;;;;;11.00;3.10;;;36.40;38.20;;;;;;4404146;28;656929;-65
2022/07/21 14:04:43;;;;;;;6.37;3.07;;;36.30;37.70;;;;;;4434460;28;658785;-64
2022/07/21 14:07:31;;;;;;;16.42;3.38;;;36.50;35.70;;;;;;4416836;28;656571;-65
2022/07/21 14:10:18;;;;;;;11.73;2.83;;;36.90;34.20;;;;;;4436375;28;658122;-64
2022/07/21 14:13:05;;;;;;;8.82;2.80;;;36.90;35.50;;;;;;4425637;28;658004;-65
2022/07/21 14:15:54;;;;;;;10.32;3.35;;;37.00;36.30;;;;;;4437300;28;657465;-64
2022/07/21 14:18:41;;;;;;;11.65;3.28;;;37.20;34.70;;;;;;4419477;28;657336;-64
2022/07/21 14:21:28;;;;;;;6.05;2.92;;;36.90;35.30;;;;;;4441117;28;658035;-64